sensor_id;sensor_type;location;lat;lon;timestamp;temperature;humidity
22568;DHT22;11450;50.818;4.382;2022-09-23T00:00:44;14.20;99.90
22568;DHT22;11450;50.818;4.382;2022-09-23T00:03:11;14.20;99.90
22568;DHT22;11450;50.818;4.382;2022-09-23T00:05:37;14.20;99.90
22568;DHT22;11450;50.818;4.382;2022-09-23T00:08:04;14.20;99.90
22568;DHT22;11450;50.818;4.382;2022-09-23T00:10:30;14.20;99.90
22568;DHT22;11450;50.818;4.382;2022-09-23T00:12:57;14.10;99.90
22568;DHT22;11450;50.818;4.382;2022-09-23T00:15:23;14.10;99.90
22568;DHT22;11450;50.818;4.382;2022-09-23T00:17:50;14.10;99.90
22568;DHT22;11450;50.818;4.382;2022-09-23T00:20:16;14.00;99.90
22568;DHT22;11450;50.818;4.382;2022-09-23T00:22:42;14.00;99.90
22568;DHT22;11450;50.818;4.382;2022-09-23T00:25:09;14.00;99.90
22568;DHT22;11450;50.818;4.382;2022-09-23T00:27:35;14.00;99.90
22568;DHT22;11450;50.818;4.382;2022-09-23T00:30:02;13.90;99.90
22568;DHT22;11450;50.818;4.382;2022-09-23T00:32:28;13.90;99.90
22568;DHT22;11450;50.818;4.382;2022-09-23T00:34:54;14.00;99.90
22568;DHT22;11450;50.818;4.382;2022-09-23T00:37:19;14.00;99.90
22568;DHT22;11450;50.818;4.382;2022-09-23T00:39:45;14.00;99.90
22568;DHT22;11450;50.818;4.382;2022-09-23T00:42:17;14.00;99.90
22568;DHT22;11450;50.818;4.382;2022-09-23T00:44:51;14.00;99.90
22568;DHT22;11450;50.818;4.382;2022-09-23T00:47:31;14.00;99.90
22568;DHT22;11450;50.818;4.382;2022-09-23T00:50:14;14.00;99.90
22568;DHT22;11450;50.818;4.382;2022-09-23T00:52:42;14.00;99.90
22568;DHT22;11450;50.818;4.382;2022-09-23T00:55:12;14.10;99.90
22568;DHT22;11450;50.818;4.382;2022-09-23T00:57:41;14.10;99.90
22568;DHT22;11450;50.818;4.382;2022-09-23T01:00:09;14.00;99.90
22568;DHT22;11450;50.818;4.382;2022-09-23T01:02:35;13.90;99.90
22568;DHT22;11450;50.818;4.382;2022-09-23T01:05:03;14.00;99.90
22568;DHT22;11450;50.818;4.382;2022-09-23T01:07:29;14.00;99.90
22568;DHT22;11450;50.818;4.382;2022-09-23T01:09:56;14.10;99.90
22568;DHT22;11450;50.818;4.382;2022-09-23T01:18:00;14.10;99.90
22568;DHT22;11450;50.818;4.382;2022-09-23T01:20:54;14.00;99.90
22568;DHT22;11450;50.818;4.382;2022-09-23T01:26:51;14.00;99.90
22568;DHT22;11450;50.818;4.382;2022-09-23T01:29:55;14.10;99.90
22568;DHT22;11450;50.818;4.382;2022-09-23T01:32:53;14.10;99.90
22568;DHT22;11450;50.818;4.382;2022-09-23T01:38:41;14.10;99.90
22568;DHT22;11450;50.818;4.382;2022-09-23T01:41:13;14.10;99.90
22568;DHT22;11450;50.818;4.382;2022-09-23T01:43:53;14.10;99.90
22568;DHT22;11450;50.818;4.382;2022-09-23T01:46:36;14.10;99.90
22568;DHT22;11450;50.818;4.382;2022-09-23T01:49:19;14.10;99.90
22568;DHT22;11450;50.818;4.382;2022-09-23T01:51:52;14.10;99.90
22568;DHT22;11450;50.818;4.382;2022-09-23T01:54:33;14.10;99.90
22568;DHT22;11450;50.818;4.382;2022-09-23T01:57:06;14.10;99.90
22568;DHT22;11450;50.818;4.382;2022-09-23T01:59:43;14.20;99.90
22568;DHT22;11450;50.818;4.382;2022-09-23T02:02:29;14.10;99.90
22568;DHT22;11450;50.818;4.382;2022-09-23T02:05:09;14.10;99.90
22568;DHT22;11450;50.818;4.382;2022-09-23T02:10:19;14.10;99.90
22568;DHT22;11450;50.818;4.382;2022-09-23T02:12:49;14.10;99.90
22568;DHT22;11450;50.818;4.382;2022-09-23T02:15:21;14.10;99.90
22568;DHT22;11450;50.818;4.382;2022-09-23T02:17:54;14.10;99.90
22568;DHT22;11450;50.818;4.382;2022-09-23T02:20:33;14.10;99.90
22568;DHT22;11450;50.818;4.382;2022-09-23T02:23:26;14.10;99.90
22568;DHT22;11450;50.818;4.382;2022-09-23T02:26:33;14.10;99.90
22568;DHT22;11450;50.818;4.382;2022-09-23T02:29:18;14.10;99.90
22568;DHT22;11450;50.818;4.382;2022-09-23T02:37:14;14.00;99.90
22568;DHT22;11450;50.818;4.382;2022-09-23T02:39:58;13.90;99.90
22568;DHT22;11450;50.818;4.382;2022-09-23T02:42:32;13.90;99.90
22568;DHT22;11450;50.818;4.382;2022-09-23T02:44:59;14.00;99.90
22568;DHT22;11450;50.818;4.382;2022-09-23T02:47:27;13.90;99.90
22568;DHT22;11450;50.818;4.382;2022-09-23T02:49:55;13.80;99.90
22568;DHT22;11450;50.818;4.382;2022-09-23T02:52:21;13.70;99.90
22568;DHT22;11450;50.818;4.382;2022-09-23T02:54:49;13.70;99.90
22568;DHT22;11450;50.818;4.382;2022-09-23T02:57:15;13.70;99.90
22568;DHT22;11450;50.818;4.382;2022-09-23T02:59:41;13.70;99.90
22568;DHT22;11450;50.818;4.382;2022-09-23T03:05:45;13.80;99.90
22568;DHT22;11450;50.818;4.382;2022-09-23T03:11:06;13.70;99.90
22568;DHT22;11450;50.818;4.382;2022-09-23T03:17:00;13.70;99.90
22568;DHT22;11450;50.818;4.382;2022-09-23T03:20:05;13.70;99.90
22568;DHT22;11450;50.818;4.382;2022-09-23T03:22:34;13.70;99.90
22568;DHT22;11450;50.818;4.382;2022-09-23T03:25:05;13.70;99.90
22568;DHT22;11450;50.818;4.382;2022-09-23T03:27:34;13.70;99.90
22568;DHT22;11450;50.818;4.382;2022-09-23T03:30:02;13.80;99.90
22568;DHT22;11450;50.818;4.382;2022-09-23T03:32:29;13.70;99.90
22568;DHT22;11450;50.818;4.382;2022-09-23T03:34:58;13.60;99.90
22568;DHT22;11450;50.818;4.382;2022-09-23T03:37:34;13.60;99.90
22568;DHT22;11450;50.818;4.382;2022-09-23T03:40:08;13.60;99.90
22568;DHT22;11450;50.818;4.382;2022-09-23T03:42:36;13.70;99.90
22568;DHT22;11450;50.818;4.382;2022-09-23T03:45:05;13.70;99.90
22568;DHT22;11450;50.818;4.382;2022-09-23T03:47:34;13.70;99.90
22568;DHT22;11450;50.818;4.382;2022-09-23T03:50:00;13.70;99.90
22568;DHT22;11450;50.818;4.382;2022-09-23T03:52:26;13.80;99.90
22568;DHT22;11450;50.818;4.382;2022-09-23T03:54:52;13.80;99.90
22568;DHT22;11450;50.818;4.382;2022-09-23T03:57:20;13.80;99.90
22568;DHT22;11450;50.818;4.382;2022-09-23T03:59:47;13.70;99.90
22568;DHT22;11450;50.818;4.382;2022-09-23T04:02:13;13.50;99.90
22568;DHT22;11450;50.818;4.382;2022-09-23T04:04:41;13.50;99.90
22568;DHT22;11450;50.818;4.382;2022-09-23T04:07:08;13.40;99.90
22568;DHT22;11450;50.818;4.382;2022-09-23T04:09:35;13.40;99.90
22568;DHT22;11450;50.818;4.382;2022-09-23T04:12:01;13.40;99.90
22568;DHT22;11450;50.818;4.382;2022-09-23T04:14:28;13.40;99.90
22568;DHT22;11450;50.818;4.382;2022-09-23T04:16:53;13.40;99.90
22568;DHT22;11450;50.818;4.382;2022-09-23T04:19:19;13.40;99.90
22568;DHT22;11450;50.818;4.382;2022-09-23T04:21:45;13.40;99.90
22568;DHT22;11450;50.818;4.382;2022-09-23T04:24:11;13.50;99.90
22568;DHT22;11450;50.818;4.382;2022-09-23T04:26:37;13.50;99.90
22568;DHT22;11450;50.818;4.382;2022-09-23T04:29:04;13.60;99.90
22568;DHT22;11450;50.818;4.382;2022-09-23T04:31:31;13.50;99.90
22568;DHT22;11450;50.818;4.382;2022-09-23T04:33:57;13.60;99.90
22568;DHT22;11450;50.818;4.382;2022-09-23T04:36:23;13.50;99.90
22568;DHT22;11450;50.818;4.382;2022-09-23T04:38:49;13.40;99.90
22568;DHT22;11450;50.818;4.382;2022-09-23T04:41:16;13.40;99.90
22568;DHT22;11450;50.818;4.382;2022-09-23T04:43:42;13.40;99.90
22568;DHT22;11450;50.818;4.382;2022-09-23T04:46:11;13.40;99.90
22568;DHT22;11450;50.818;4.382;2022-09-23T04:48:38;13.40;99.90
22568;DHT22;11450;50.818;4.382;2022-09-23T04:51:16;13.40;99.90
22568;DHT22;11450;50.818;4.382;2022-09-23T04:53:44;13.50;99.90
22568;DHT22;11450;50.818;4.382;2022-09-23T04:56:15;13.40;99.90
22568;DHT22;11450;50.818;4.382;2022-09-23T04:58:41;13.40;99.90
22568;DHT22;11450;50.818;4.382;2022-09-23T05:03:44;13.50;99.90
22568;DHT22;11450;50.818;4.382;2022-09-23T05:06:12;13.50;99.90
22568;DHT22;11450;50.818;4.382;2022-09-23T05:08:58;13.50;99.90
22568;DHT22;11450;50.818;4.382;2022-09-23T05:11:25;13.40;99.90
22568;DHT22;11450;50.818;4.382;2022-09-23T05:13:53;13.40;99.90
22568;DHT22;11450;50.818;4.382;2022-09-23T05:16:19;13.50;99.90
22568;DHT22;11450;50.818;4.382;2022-09-23T05:18:47;13.50;99.90
22568;DHT22;11450;50.818;4.382;2022-09-23T05:21:16;13.40;99.90
22568;DHT22;11450;50.818;4.382;2022-09-23T05:23:45;13.40;99.90
22568;DHT22;11450;50.818;4.382;2022-09-23T05:26:12;13.40;99.90
22568;DHT22;11450;50.818;4.382;2022-09-23T05:28:38;13.40;99.90
22568;DHT22;11450;50.818;4.382;2022-09-23T05:33:35;13.40;99.90
22568;DHT22;11450;50.818;4.382;2022-09-23T05:36:01;13.40;99.90
22568;DHT22;11450;50.818;4.382;2022-09-23T05:38:28;13.40;99.90
22568;DHT22;11450;50.818;4.382;2022-09-23T05:40:55;13.40;99.90
22568;DHT22;11450;50.818;4.382;2022-09-23T05:43:22;13.40;99.90
22568;DHT22;11450;50.818;4.382;2022-09-23T05:45:47;13.40;99.90
22568;DHT22;11450;50.818;4.382;2022-09-23T05:48:13;13.50;99.90
22568;DHT22;11450;50.818;4.382;2022-09-23T05:50:39;13.60;99.90
22568;DHT22;11450;50.818;4.382;2022-09-23T05:53:04;13.40;99.90
22568;DHT22;11450;50.818;4.382;2022-09-23T05:55:30;13.40;99.90
22568;DHT22;11450;50.818;4.382;2022-09-23T05:57:55;13.30;99.90
22568;DHT22;11450;50.818;4.382;2022-09-23T06:00:21;13.30;99.90
22568;DHT22;11450;50.818;4.382;2022-09-23T06:02:47;13.30;99.90
22568;DHT22;11450;50.818;4.382;2022-09-23T06:05:13;13.40;99.90
22568;DHT22;11450;50.818;4.382;2022-09-23T06:07:40;13.50;99.90
22568;DHT22;11450;50.818;4.382;2022-09-23T06:10:06;13.40;99.90
22568;DHT22;11450;50.818;4.382;2022-09-23T06:12:31;13.40;99.90
22568;DHT22;11450;50.818;4.382;2022-09-23T06:14:59;13.40;99.90
22568;DHT22;11450;50.818;4.382;2022-09-23T06:17:25;13.50;99.90
22568;DHT22;11450;50.818;4.382;2022-09-23T06:19:50;13.40;99.90
22568;DHT22;11450;50.818;4.382;2022-09-23T06:22:16;13.30;99.90
22568;DHT22;11450;50.818;4.382;2022-09-23T06:24:43;13.40;99.90
22568;DHT22;11450;50.818;4.382;2022-09-23T06:27:09;13.40;99.90
22568;DHT22;11450;50.818;4.382;2022-09-23T06:29:34;13.60;99.90
22568;DHT22;11450;50.818;4.382;2022-09-23T06:32:00;13.60;99.90
22568;DHT22;11450;50.818;4.382;2022-09-23T06:34:26;13.60;99.90
22568;DHT22;11450;50.818;4.382;2022-09-23T06:36:52;13.80;99.90
22568;DHT22;11450;50.818;4.382;2022-09-23T06:39:21;13.80;99.90
22568;DHT22;11450;50.818;4.382;2022-09-23T06:41:47;13.60;99.90
22568;DHT22;11450;50.818;4.382;2022-09-23T06:44:13;13.60;99.90
22568;DHT22;11450;50.818;4.382;2022-09-23T06:46:39;13.70;99.90
22568;DHT22;11450;50.818;4.382;2022-09-23T06:49:05;13.70;99.90
22568;DHT22;11450;50.818;4.382;2022-09-23T06:51:31;13.80;99.90
22568;DHT22;11450;50.818;4.382;2022-09-23T06:53:56;13.80;99.90
22568;DHT22;11450;50.818;4.382;2022-09-23T06:56:22;13.80;99.90
22568;DHT22;11450;50.818;4.382;2022-09-23T06:58:50;13.90;99.90
22568;DHT22;11450;50.818;4.382;2022-09-23T07:01:16;13.90;99.90
22568;DHT22;11450;50.818;4.382;2022-09-23T07:03:44;13.90;99.90
22568;DHT22;11450;50.818;4.382;2022-09-23T07:06:11;14.00;99.90
22568;DHT22;11450;50.818;4.382;2022-09-23T07:08:37;14.00;99.90
22568;DHT22;11450;50.818;4.382;2022-09-23T07:11:06;14.10;99.90
22568;DHT22;11450;50.818;4.382;2022-09-23T07:13:36;14.20;99.90
22568;DHT22;11450;50.818;4.382;2022-09-23T07:16:05;14.30;99.90
22568;DHT22;11450;50.818;4.382;2022-09-23T07:18:32;14.30;99.90
22568;DHT22;11450;50.818;4.382;2022-09-23T07:21:09;14.40;99.90
22568;DHT22;11450;50.818;4.382;2022-09-23T07:23:37;14.50;99.90
22568;DHT22;11450;50.818;4.382;2022-09-23T07:26:05;14.40;99.90
22568;DHT22;11450;50.818;4.382;2022-09-23T07:28:40;14.40;99.90
22568;DHT22;11450;50.818;4.382;2022-09-23T07:31:11;14.30;99.90
22568;DHT22;11450;50.818;4.382;2022-09-23T07:33:40;14.40;99.90
22568;DHT22;11450;50.818;4.382;2022-09-23T07:36:17;14.50;99.90
22568;DHT22;11450;50.818;4.382;2022-09-23T07:38:44;14.50;99.90
22568;DHT22;11450;50.818;4.382;2022-09-23T07:41:13;14.50;99.90
22568;DHT22;11450;50.818;4.382;2022-09-23T07:43:39;14.60;99.90
22568;DHT22;11450;50.818;4.382;2022-09-23T07:46:08;14.70;99.90
22568;DHT22;11450;50.818;4.382;2022-09-23T07:48:36;14.60;99.90
22568;DHT22;11450;50.818;4.382;2022-09-23T07:51:06;14.60;99.90
22568;DHT22;11450;50.818;4.382;2022-09-23T07:53:33;14.60;99.90
22568;DHT22;11450;50.818;4.382;2022-09-23T07:55:59;14.60;99.90
22568;DHT22;11450;50.818;4.382;2022-09-23T07:58:25;14.70;99.90
22568;DHT22;11450;50.818;4.382;2022-09-23T08:00:50;14.80;99.90
22568;DHT22;11450;50.818;4.382;2022-09-23T08:03:18;14.90;99.90
22568;DHT22;11450;50.818;4.382;2022-09-23T08:05:49;14.90;99.90
22568;DHT22;11450;50.818;4.382;2022-09-23T08:08:15;14.90;99.90
22568;DHT22;11450;50.818;4.382;2022-09-23T08:10:41;15.10;99.90
22568;DHT22;11450;50.818;4.382;2022-09-23T08:13:07;15.10;99.90
22568;DHT22;11450;50.818;4.382;2022-09-23T08:15:32;15.10;99.90
22568;DHT22;11450;50.818;4.382;2022-09-23T08:17:59;15.10;99.90
22568;DHT22;11450;50.818;4.382;2022-09-23T08:20:26;15.10;99.90
22568;DHT22;11450;50.818;4.382;2022-09-23T08:23:11;15.20;99.90
22568;DHT22;11450;50.818;4.382;2022-09-23T08:25:41;15.30;99.90
22568;DHT22;11450;50.818;4.382;2022-09-23T08:28:07;15.30;99.90
22568;DHT22;11450;50.818;4.382;2022-09-23T08:30:33;15.40;99.90
22568;DHT22;11450;50.818;4.382;2022-09-23T08:32:59;15.40;99.90
22568;DHT22;11450;50.818;4.382;2022-09-23T08:35:30;15.40;99.90
22568;DHT22;11450;50.818;4.382;2022-09-23T08:37:56;15.50;99.90
22568;DHT22;11450;50.818;4.382;2022-09-23T08:40:22;15.60;99.90
22568;DHT22;11450;50.818;4.382;2022-09-23T08:42:48;15.60;99.90
22568;DHT22;11450;50.818;4.382;2022-09-23T08:45:21;15.70;99.90
22568;DHT22;11450;50.818;4.382;2022-09-23T08:50:26;15.80;99.90
22568;DHT22;11450;50.818;4.382;2022-09-23T08:52:55;15.70;99.90
22568;DHT22;11450;50.818;4.382;2022-09-23T08:55:32;15.80;99.90
22568;DHT22;11450;50.818;4.382;2022-09-23T08:58:36;15.90;99.90
22568;DHT22;11450;50.818;4.382;2022-09-23T09:01:40;16.00;99.90
22568;DHT22;11450;50.818;4.382;2022-09-23T09:04:22;16.10;99.90
22568;DHT22;11450;50.818;4.382;2022-09-23T09:09:35;16.30;99.90
22568;DHT22;11450;50.818;4.382;2022-09-23T09:12:14;16.40;99.90
22568;DHT22;11450;50.818;4.382;2022-09-23T09:15:01;16.50;99.90
22568;DHT22;11450;50.818;4.382;2022-09-23T09:17:38;16.70;99.90
22568;DHT22;11450;50.818;4.382;2022-09-23T09:22:52;16.80;99.90
22568;DHT22;11450;50.818;4.382;2022-09-23T09:27:55;17.10;99.90
22568;DHT22;11450;50.818;4.382;2022-09-23T09:30:21;17.30;99.90
22568;DHT22;11450;50.818;4.382;2022-09-23T09:33:04;17.30;99.90
22568;DHT22;11450;50.818;4.382;2022-09-23T09:36:00;17.20;99.90
22568;DHT22;11450;50.818;4.382;2022-09-23T09:38:32;17.30;99.90
22568;DHT22;11450;50.818;4.382;2022-09-23T09:41:01;17.40;99.90
22568;DHT22;11450;50.818;4.382;2022-09-23T09:43:33;17.50;99.90
22568;DHT22;11450;50.818;4.382;2022-09-23T09:46:18;17.60;99.90
22568;DHT22;11450;50.818;4.382;2022-09-23T09:48:57;17.60;99.90
22568;DHT22;11450;50.818;4.382;2022-09-23T09:51:26;17.80;99.90
22568;DHT22;11450;50.818;4.382;2022-09-23T09:53:53;17.80;99.90
22568;DHT22;11450;50.818;4.382;2022-09-23T09:56:38;17.90;99.90
22568;DHT22;11450;50.818;4.382;2022-09-23T09:59:16;18.00;99.90
22568;DHT22;11450;50.818;4.382;2022-09-23T10:01:45;18.10;99.90
22568;DHT22;11450;50.818;4.382;2022-09-23T10:04:33;18.20;99.90
22568;DHT22;11450;50.818;4.382;2022-09-23T10:07:14;18.20;99.90
22568;DHT22;11450;50.818;4.382;2022-09-23T10:09:47;18.20;99.90
22568;DHT22;11450;50.818;4.382;2022-09-23T10:12:22;18.10;99.90
22568;DHT22;11450;50.818;4.382;2022-09-23T10:14:50;18.20;99.90
22568;DHT22;11450;50.818;4.382;2022-09-23T10:17:33;18.20;99.90
22568;DHT22;11450;50.818;4.382;2022-09-23T10:20:05;18.20;99.90
22568;DHT22;11450;50.818;4.382;2022-09-23T10:22:34;18.20;99.90
22568;DHT22;11450;50.818;4.382;2022-09-23T10:25:06;18.30;99.90
22568;DHT22;11450;50.818;4.382;2022-09-23T10:27:34;18.50;99.90
22568;DHT22;11450;50.818;4.382;2022-09-23T10:30:24;18.60;99.90
22568;DHT22;11450;50.818;4.382;2022-09-23T10:32:52;18.70;99.90
22568;DHT22;11450;50.818;4.382;2022-09-23T10:35:25;18.80;99.90
22568;DHT22;11450;50.818;4.382;2022-09-23T10:37:57;19.00;99.90
22568;DHT22;11450;50.818;4.382;2022-09-23T10:40:29;19.20;99.90
22568;DHT22;11450;50.818;4.382;2022-09-23T10:46:52;19.40;99.90
22568;DHT22;11450;50.818;4.382;2022-09-23T11:09:06;19.60;99.90
22568;DHT22;11450;50.818;4.382;2022-09-23T11:14:15;19.40;99.90
22568;DHT22;11450;50.818;4.382;2022-09-23T11:17:16;19.40;99.90
22568;DHT22;11450;50.818;4.382;2022-09-23T11:19:55;19.50;99.90
22568;DHT22;11450;50.818;4.382;2022-09-23T11:30:19;19.70;99.90
22568;DHT22;11450;50.818;4.382;2022-09-23T11:35:48;19.60;99.90
22568;DHT22;11450;50.818;4.382;2022-09-23T11:38:24;19.60;99.90
22568;DHT22;11450;50.818;4.382;2022-09-23T11:40:58;19.70;99.90
22568;DHT22;11450;50.818;4.382;2022-09-23T11:43:26;19.70;99.90
22568;DHT22;11450;50.818;4.382;2022-09-23T11:51:29;19.90;99.90
22568;DHT22;11450;50.818;4.382;2022-09-23T11:54:03;20.00;99.90
22568;DHT22;11450;50.818;4.382;2022-09-23T11:56:36;20.00;99.90
22568;DHT22;11450;50.818;4.382;2022-09-23T11:59:18;20.10;99.90
22568;DHT22;11450;50.818;4.382;2022-09-23T12:02:26;20.10;99.90
22568;DHT22;11450;50.818;4.382;2022-09-23T12:05:09;20.20;99.90
22568;DHT22;11450;50.818;4.382;2022-09-23T12:07:43;20.20;99.90
22568;DHT22;11450;50.818;4.382;2022-09-23T12:10:13;20.20;99.90
22568;DHT22;11450;50.818;4.382;2022-09-23T12:13:09;20.20;99.90
22568;DHT22;11450;50.818;4.382;2022-09-23T12:27:37;19.90;99.90
22568;DHT22;11450;50.818;4.382;2022-09-23T12:30:12;19.90;99.90
22568;DHT22;11450;50.818;4.382;2022-09-23T12:32:39;20.00;99.90
22568;DHT22;11450;50.818;4.382;2022-09-23T12:35:22;20.00;99.90
22568;DHT22;11450;50.818;4.382;2022-09-23T12:37:50;20.10;99.90
22568;DHT22;11450;50.818;4.382;2022-09-23T12:40:32;20.20;99.90
22568;DHT22;11450;50.818;4.382;2022-09-23T12:42:59;20.00;99.90
22568;DHT22;11450;50.818;4.382;2022-09-23T12:48:01;20.10;99.90
22568;DHT22;11450;50.818;4.382;2022-09-23T12:56:15;20.00;99.90
22568;DHT22;11450;50.818;4.382;2022-09-23T13:01:22;20.20;99.90
22568;DHT22;11450;50.818;4.382;2022-09-23T13:03:55;20.30;99.90
22568;DHT22;11450;50.818;4.382;2022-09-23T13:09:26;20.40;99.70
22568;DHT22;11450;50.818;4.382;2022-09-23T13:11:59;20.30;99.90
22568;DHT22;11450;50.818;4.382;2022-09-23T13:14:27;20.40;99.90
22568;DHT22;11450;50.818;4.382;2022-09-23T13:16:54;20.40;99.90
22568;DHT22;11450;50.818;4.382;2022-09-23T13:22:08;20.40;99.90
22568;DHT22;11450;50.818;4.382;2022-09-23T13:24:54;20.40;99.90
22568;DHT22;11450;50.818;4.382;2022-09-23T13:27:35;20.40;99.90
22568;DHT22;11450;50.818;4.382;2022-09-23T13:30:05;20.40;99.90
22568;DHT22;11450;50.818;4.382;2022-09-23T13:32:42;20.30;99.90
22568;DHT22;11450;50.818;4.382;2022-09-23T13:37:47;20.40;99.90
22568;DHT22;11450;50.818;4.382;2022-09-23T13:42:55;20.40;99.90
22568;DHT22;11450;50.818;4.382;2022-09-23T13:45:24;20.40;99.90
22568;DHT22;11450;50.818;4.382;2022-09-23T13:47:52;20.40;99.90
22568;DHT22;11450;50.818;4.382;2022-09-23T13:50:21;20.40;99.90
22568;DHT22;11450;50.818;4.382;2022-09-23T13:52:58;20.40;99.90
22568;DHT22;11450;50.818;4.382;2022-09-23T13:55:33;20.40;99.90
22568;DHT22;11450;50.818;4.382;2022-09-23T13:58:21;20.40;99.90
22568;DHT22;11450;50.818;4.382;2022-09-23T14:00:49;20.40;99.90
22568;DHT22;11450;50.818;4.382;2022-09-23T14:03:29;20.40;99.90
22568;DHT22;11450;50.818;4.382;2022-09-23T14:06:10;20.40;99.90
22568;DHT22;11450;50.818;4.382;2022-09-23T14:08:42;20.30;99.90
22568;DHT22;11450;50.818;4.382;2022-09-23T14:11:15;20.30;99.90
22568;DHT22;11450;50.818;4.382;2022-09-23T14:13:42;20.30;99.90
22568;DHT22;11450;50.818;4.382;2022-09-23T14:16:11;20.20;99.90
22568;DHT22;11450;50.818;4.382;2022-09-23T14:18:48;20.20;99.90
22568;DHT22;11450;50.818;4.382;2022-09-23T14:23:51;20.10;99.90
22568;DHT22;11450;50.818;4.382;2022-09-23T14:26:17;20.00;99.90
22568;DHT22;11450;50.818;4.382;2022-09-23T14:28:45;20.00;99.90
22568;DHT22;11450;50.818;4.382;2022-09-23T14:31:11;20.00;99.90
22568;DHT22;11450;50.818;4.382;2022-09-23T14:33:41;20.00;99.90
22568;DHT22;11450;50.818;4.382;2022-09-23T14:36:10;19.90;99.90
22568;DHT22;11450;50.818;4.382;2022-09-23T14:39:03;19.90;99.90
22568;DHT22;11450;50.818;4.382;2022-09-23T14:41:34;19.90;99.90
22568;DHT22;11450;50.818;4.382;2022-09-23T14:44:03;19.80;99.90
22568;DHT22;11450;50.818;4.382;2022-09-23T14:46:32;19.80;99.90
22568;DHT22;11450;50.818;4.382;2022-09-23T14:51:34;19.80;99.90
22568;DHT22;11450;50.818;4.382;2022-09-23T14:54:35;19.80;99.90
22568;DHT22;11450;50.818;4.382;2022-09-23T15:05:18;19.70;99.90
22568;DHT22;11450;50.818;4.382;2022-09-23T15:07:53;19.70;99.90
22568;DHT22;11450;50.818;4.382;2022-09-23T15:10:28;19.60;99.90
22568;DHT22;11450;50.818;4.382;2022-09-23T15:15:35;19.60;99.90
22568;DHT22;11450;50.818;4.382;2022-09-23T15:18:11;19.60;99.90
22568;DHT22;11450;50.818;4.382;2022-09-23T15:20:52;19.60;99.90
22568;DHT22;11450;50.818;4.382;2022-09-23T15:23:43;19.50;99.90
22568;DHT22;11450;50.818;4.382;2022-09-23T15:26:23;19.40;99.90
22568;DHT22;11450;50.818;4.382;2022-09-23T15:28:51;19.40;99.90
22568;DHT22;11450;50.818;4.382;2022-09-23T15:31:23;19.40;99.90
22568;DHT22;11450;50.818;4.382;2022-09-23T15:33:51;19.40;99.90
22568;DHT22;11450;50.818;4.382;2022-09-23T15:36:22;19.60;99.90
22568;DHT22;11450;50.818;4.382;2022-09-23T15:38:51;19.50;99.90
22568;DHT22;11450;50.818;4.382;2022-09-23T15:41:17;19.50;99.90
22568;DHT22;11450;50.818;4.382;2022-09-23T15:43:42;19.50;99.90
22568;DHT22;11450;50.818;4.382;2022-09-23T15:46:16;19.50;99.90
22568;DHT22;11450;50.818;4.382;2022-09-23T15:48:58;19.40;99.90
22568;DHT22;11450;50.818;4.382;2022-09-23T15:51:25;19.40;99.90
22568;DHT22;11450;50.818;4.382;2022-09-23T15:53:52;19.40;99.90
22568;DHT22;11450;50.818;4.382;2022-09-23T15:56:22;19.40;99.90
22568;DHT22;11450;50.818;4.382;2022-09-23T15:58:49;19.40;99.90
22568;DHT22;11450;50.818;4.382;2022-09-23T16:01:19;19.30;99.90
22568;DHT22;11450;50.818;4.382;2022-09-23T16:03:48;19.30;99.90
22568;DHT22;11450;50.818;4.382;2022-09-23T16:06:14;19.20;99.90
22568;DHT22;11450;50.818;4.382;2022-09-23T16:08:39;19.20;99.90
22568;DHT22;11450;50.818;4.382;2022-09-23T16:11:19;19.30;99.90
22568;DHT22;11450;50.818;4.382;2022-09-23T16:13:45;19.20;99.90
22568;DHT22;11450;50.818;4.382;2022-09-23T16:16:11;19.30;99.90
22568;DHT22;11450;50.818;4.382;2022-09-23T16:18:37;19.20;99.90
22568;DHT22;11450;50.818;4.382;2022-09-23T16:21:04;19.20;99.90
22568;DHT22;11450;50.818;4.382;2022-09-23T16:23:33;19.10;99.90
22568;DHT22;11450;50.818;4.382;2022-09-23T16:26:07;19.00;99.90
22568;DHT22;11450;50.818;4.382;2022-09-23T16:28:38;19.00;99.90
22568;DHT22;11450;50.818;4.382;2022-09-23T16:31:04;19.00;99.90
22568;DHT22;11450;50.818;4.382;2022-09-23T16:33:30;18.90;99.90
22568;DHT22;11450;50.818;4.382;2022-09-23T16:35:56;18.90;99.90
22568;DHT22;11450;50.818;4.382;2022-09-23T16:38:22;18.90;99.90
22568;DHT22;11450;50.818;4.382;2022-09-23T16:40:47;18.80;99.90
22568;DHT22;11450;50.818;4.382;2022-09-23T16:43:14;18.80;99.90
22568;DHT22;11450;50.818;4.382;2022-09-23T16:45:40;18.80;99.90
22568;DHT22;11450;50.818;4.382;2022-09-23T16:48:06;18.80;99.90
22568;DHT22;11450;50.818;4.382;2022-09-23T16:50:32;18.70;99.90
22568;DHT22;11450;50.818;4.382;2022-09-23T16:52:58;18.70;99.90
22568;DHT22;11450;50.818;4.382;2022-09-23T16:55:24;18.70;99.90
22568;DHT22;11450;50.818;4.382;2022-09-23T16:57:51;18.70;99.90
22568;DHT22;11450;50.818;4.382;2022-09-23T17:00:19;18.70;99.90
22568;DHT22;11450;50.818;4.382;2022-09-23T17:03:04;18.60;99.90
22568;DHT22;11450;50.818;4.382;2022-09-23T17:05:49;18.50;99.90
22568;DHT22;11450;50.818;4.382;2022-09-23T17:08:16;18.40;99.90
22568;DHT22;11450;50.818;4.382;2022-09-23T17:10:55;18.40;99.90
22568;DHT22;11450;50.818;4.382;2022-09-23T17:13:23;18.40;99.90
22568;DHT22;11450;50.818;4.382;2022-09-23T17:15:50;18.40;99.90
22568;DHT22;11450;50.818;4.382;2022-09-23T17:18:15;18.40;99.90
22568;DHT22;11450;50.818;4.382;2022-09-23T17:20:41;18.40;99.90
22568;DHT22;11450;50.818;4.382;2022-09-23T17:23:09;18.40;99.90
22568;DHT22;11450;50.818;4.382;2022-09-23T17:25:35;18.20;99.90
22568;DHT22;11450;50.818;4.382;2022-09-23T17:28:01;18.20;99.90
22568;DHT22;11450;50.818;4.382;2022-09-23T17:30:27;18.20;99.90
22568;DHT22;11450;50.818;4.382;2022-09-23T17:32:53;18.10;99.90
22568;DHT22;11450;50.818;4.382;2022-09-23T17:35:19;17.80;99.90
22568;DHT22;11450;50.818;4.382;2022-09-23T17:37:45;17.70;99.90
22568;DHT22;11450;50.818;4.382;2022-09-23T17:40:12;17.60;99.90
22568;DHT22;11450;50.818;4.382;2022-09-23T17:42:39;17.60;99.90
22568;DHT22;11450;50.818;4.382;2022-09-23T17:45:08;17.60;99.90
22568;DHT22;11450;50.818;4.382;2022-09-23T17:47:37;17.50;99.90
22568;DHT22;11450;50.818;4.382;2022-09-23T17:50:03;17.50;99.90
22568;DHT22;11450;50.818;4.382;2022-09-23T17:52:29;17.50;99.90
22568;DHT22;11450;50.818;4.382;2022-09-23T17:54:55;17.50;99.90
22568;DHT22;11450;50.818;4.382;2022-09-23T17:57:20;17.40;99.90
22568;DHT22;11450;50.818;4.382;2022-09-23T17:59:46;17.30;99.90
22568;DHT22;11450;50.818;4.382;2022-09-23T18:02:15;17.30;99.90
22568;DHT22;11450;50.818;4.382;2022-09-23T18:04:41;17.40;99.90
22568;DHT22;11450;50.818;4.382;2022-09-23T18:07:06;17.40;99.90
22568;DHT22;11450;50.818;4.382;2022-09-23T18:09:32;17.30;99.90
22568;DHT22;11450;50.818;4.382;2022-09-23T18:11:57;17.30;99.90